Time;durP1;ratioP1;P1;durP2;ratioP2;P2;SDS_P1;SDS_P2;PMS_P1;PMS_P2;Temp;Humidity;BMP_temperature;BMP_pressure;BME280_temperature;BME280_humidity;BME280_pressure;Samples;Min_cycle;Max_cycle;Signal;HPM_P1;HPM_P2
2023/08/19 17:38:57;;;;;;;;;1.00;1.00;;;;;28.24;47.17;101041.25;6132621;22;1551858;-82
2023/08/19 17:41:23;;;;;;;;;2.00;2.00;;;;;28.21;47.48;101048.81;6211088;22;45514;-83
2023/08/19 17:43:48;;;;;;;;;1.00;1.00;;;;;28.24;47.43;101055.78;6215573;22;45346;-84
2023/08/19 17:46:14;;;;;;;;;0.75;0.75;;;;;28.34;47.72;101078.25;6217571;22;45325;-86
2023/08/19 17:48:40;;;;;;;;;3.25;2.25;;;;;28.28;47.56;101087.25;6217563;22;45867;-84
2023/08/19 17:51:05;;;;;;;;;1.75;1.75;;;;;28.27;47.47;101084.69;6216496;22;45324;-82
2023/08/19 17:53:31;;;;;;;;;2.00;2.00;;;;;28.29;47.95;101093.56;6217484;22;45352;-84
2023/08/19 17:55:57;;;;;;;;;4.50;3.25;;;;;28.25;47.69;101092.19;6216155;22;45473;-82
2023/08/19 17:58:24;;;;;;;;;2.40;2.00;;;;;28.21;47.56;101097.19;6215614;22;45813;-84
2023/08/19 18:00:50;;;;;;;;;2.00;2.00;;;;;28.15;47.71;101104.28;6214575;22;45291;-84
2023/08/19 18:03:15;;;;;;;;;3.75;3.75;;;;;27.88;48.54;101058.44;6217941;22;45161;-81
2023/08/19 18:05:40;;;;;;;;;5.75;1.75;;;;;27.97;48.64;101092.84;6213166;22;45282;-81
2023/08/19 18:08:07;;;;;;;;;3.25;2.75;;;;;28.01;49.18;101096.06;6212475;22;45970;-78
2023/08/19 18:10:33;;;;;;;;;3.40;3.40;;;;;27.95;48.76;101102.28;6210446;22;45585;-79
2023/08/19 18:12:59;;;;;;;;;4.75;4.50;;;;;27.89;48.69;101102.00;6211268;22;45426;-79
2023/08/19 18:15:25;;;;;;;;;3.75;3.75;;;;;27.77;48.97;101088.97;6214387;22;45302;-80
2023/08/19 18:17:51;;;;;;;;;4.40;3.00;;;;;27.84;49.41;101107.16;6213231;22;45444;-83
2023/08/19 18:20:17;;;;;;;;;2.80;2.80;;;;;27.70;49.58;101091.59;6215590;22;45267;-82
2023/08/19 18:22:43;;;;;;;;;3.00;3.00;;;;;27.67;49.66;101071.97;6217185;22;45284;-84
2023/08/19 18:25:09;;;;;;;;;2.60;2.60;;;;;27.48;49.33;101063.25;6212764;22;45477;-82
2023/08/19 18:27:34;;;;;;;;;3.00;3.00;;;;;27.66;50.03;101105.81;6215354;22;50444;-81
2023/08/19 18:29:59;;;;;;;;;2.00;0.75;;;;;27.55;50.29;101096.13;6211486;22;45476;-80
2023/08/19 18:32:28;;;;;;;;;2.00;2.00;;;;;27.44;50.16;101085.66;6213891;22;45259;-82
2023/08/19 18:34:55;;;;;;;;;5.80;4.00;;;;;27.59;50.31;101111.97;6213564;22;45355;-80
2023/08/19 18:37:20;;;;;;;;;3.40;3.40;;;;;27.50;50.54;101115.81;6212995;22;45592;-80
2023/08/19 18:39:45;;;;;;;;;2.75;2.75;;;;;27.39;51.09;101108.06;6216372;22;45217;-81
2023/08/19 18:42:11;;;;;;;;;2.25;2.25;;;;;27.41;51.64;101124.25;6215761;22;45389;-80
2023/08/19 18:44:36;;;;;;;;;5.25;5.25;;;;;27.35;51.81;101133.19;6214746;22;45644;-83
2023/08/19 18:47:02;;;;;;;;;4.00;4.00;;;;;27.24;51.94;101121.66;6210874;22;51873;-81
2023/08/19 18:49:27;;;;;;;;;5.60;4.80;;;;;27.26;52.06;101135.97;6213079;22;45295;-85
2023/08/19 18:51:53;;;;;;;;;6.00;6.00;;;;;27.23;52.50;101140.97;6211587;22;45560;-81
2023/08/19 18:54:20;;;;;;;;;5.00;5.00;;;;;27.03;52.44;101116.84;6214741;22;45344;-77
2023/08/19 18:56:47;;;;;;;;;6.20;5.80;;;;;27.09;52.91;101130.81;6213528;22;46009;-78
2023/08/19 18:59:12;;;;;;;;;5.40;4.80;;;;;27.09;52.39;101141.75;6213671;22;45338;-81
2023/08/19 19:01:38;;;;;;;;;5.25;5.25;;;;;27.04;53.28;101145.84;6212972;22;45260;-78
2023/08/19 19:04:03;;;;;;;;;6.00;4.00;;;;;26.98;53.29;101159.34;6212355;22;45570;-83
2023/08/19 19:06:29;;;;;;;;;6.50;6.50;;;;;26.93;53.53;101154.41;6213052;22;45412;-82
2023/08/19 19:08:54;;;;;;;;;7.00;7.00;;;;;26.89;53.57;101153.06;6213159;22;45232;-85
2023/08/19 19:11:20;;;;;;;;;8.00;6.25;;;;;26.81;53.92;101150.38;6214028;22;45728;-79
2023/08/19 19:13:45;;;;;;;;;11.25;9.00;;;;;26.82;53.75;101160.25;6211818;22;45375;-84
2023/08/19 19:16:11;;;;;;;;;2.75;2.75;;;;;26.73;54.20;101162.19;6213693;22;46213;-81
2023/08/19 19:18:36;;;;;;;;;6.25;6.25;;;;;26.52;54.02;101123.72;6211347;22;57531;-77
2023/08/19 19:21:02;;;;;;;;;5.50;5.50;;;;;26.60;54.17;101161.91;6209072;22;45741;-82
2023/08/19 19:23:28;;;;;;;;;10.00;9.00;;;;;26.49;54.44;101153.25;6214035;22;45487;-79
2023/08/19 19:25:59;;;;;;;;;7.20;6.20;;;;;26.50;54.46;101163.97;6211562;22;45669;-78
2023/08/19 19:28:24;;;;;;;;;3.80;3.80;;;;;26.46;54.48;101159.91;6212972;22;45449;-82
2023/08/19 19:30:50;;;;;;;;;4.75;4.75;;;;;26.34;54.93;101151.22;6213100;22;45701;-85
2023/08/19 19:33:17;;;;;;;;;6.00;6.00;;;;;26.51;55.19;101178.47;6211860;22;45610;-80
2023/08/19 19:35:42;;;;;;;;;6.80;6.80;;;;;26.39;55.76;101167.94;6212484;22;45390;-83
2023/08/19 19:38:08;;;;;;;;;6.50;6.50;;;;;26.36;55.60;101160.09;6210547;22;45353;-84
2023/08/19 19:40:33;;;;;;;;;6.00;6.00;;;;;26.29;56.26;101161.78;6213124;22;45267;-84
2023/08/19 19:42:59;;;;;;;;;4.00;4.00;;;;;26.39;56.36;101183.44;6213058;22;45441;-81
2023/08/19 19:45:24;;;;;;;;;5.25;5.25;;;;;26.31;56.65;101173.41;6212553;22;45367;-81
2023/08/19 19:47:49;;;;;;;;;5.50;5.50;;;;;26.26;56.50;101170.31;6210026;22;45199;-82
2023/08/19 19:50:15;;;;;;;;;6.75;6.75;;;;;26.27;56.99;101172.03;6212853;22;45331;-79
2023/08/19 19:52:41;;;;;;;;;6.25;6.25;;;;;26.24;56.93;101187.88;6213176;22;45452;-78
2023/08/19 19:55:07;;;;;;;;;4.80;4.40;;;;;26.17;56.76;101174.97;6213024;22;45319;-80
2023/08/19 19:57:33;;;;;;;;;5.50;5.50;;;;;26.08;57.26;101166.97;6212537;22;45224;-77
2023/08/19 19:59:58;;;;;;;;;3.50;3.50;;;;;26.02;57.02;101160.31;6210737;22;45405;-79
2023/08/19 20:02:24;;;;;;;;;4.00;3.75;;;;;26.07;57.32;101174.28;6213434;22;45539;-77
2023/08/19 20:04:49;;;;;;;;;6.25;6.25;;;;;26.13;57.38;101197.25;6210957;22;46514;-75
2023/08/19 20:07:15;;;;;;;;;4.25;4.25;;;;;26.00;57.64;101180.59;6213444;22;45469;-82
2023/08/19 20:09:40;;;;;;;;;2.25;2.25;;;;;26.08;57.56;101200.53;6212714;22;45309;-81
2023/08/19 20:12:06;;;;;;;;;6.00;6.00;;;;;25.96;57.62;101179.25;6212627;22;45376;-80
2023/08/19 20:14:31;;;;;;;;;4.75;4.75;;;;;26.08;57.68;101205.97;6212686;22;46158;-76
2023/08/19 20:16:57;;;;;;;;;3.00;3.00;;;;;26.08;58.05;101205.13;6213445;22;45334;-78
2023/08/19 20:19:29;;;;;;;;;3.00;3.00;;;;;26.02;57.90;101190.28;6213713;22;45389;-76
2023/08/19 20:21:54;;;;;;;;;7.25;4.50;;;;;25.96;57.98;101185.53;6213571;22;45377;-81
2023/08/19 20:24:19;;;;;;;;;5.50;4.50;;;;;25.88;58.02;101170.03;6210908;22;46530;-82
2023/08/19 20:26:45;;;;;;;;;3.75;3.75;;;;;25.95;58.25;101183.00;6212884;22;45377;-80
2023/08/19 20:29:11;;;;;;;;;2.20;1.00;;;;;25.94;57.93;101197.66;6212782;22;45429;-79
2023/08/19 20:31:36;;;;;;;;;4.50;4.25;;;;;25.86;58.44;101190.31;6212931;22;45552;-78
2023/08/19 20:34:02;;;;;;;;;4.00;4.00;;;;;25.79;58.83;101190.16;6210358;22;47551;-80
2023/08/19 20:36:31;;;;;;;;;6.20;5.00;;;;;25.74;58.95;101184.34;6212665;22;45335;-83
2023/08/19 20:38:56;;;;;;;;;4.00;4.00;;;;;25.77;58.91;101186.72;6210262;22;45322;-77
2023/08/19 20:41:22;;;;;;;;;5.50;4.00;;;;;25.80;59.09;101202.75;6213388;22;45251;-83
2023/08/19 20:43:47;;;;;;;;;5.25;5.25;;;;;25.70;59.19;101196.63;6213274;22;45791;-80
2023/08/19 20:46:13;;;;;;;;;5.50;4.25;;;;;25.47;59.36;101173.75;6211931;22;45299;-80
2023/08/19 20:48:38;;;;;;;;;6.00;5.00;;;;;25.70;59.85;101223.00;6214497;22;45227;-80
2023/08/19 20:51:03;;;;;;;;;5.50;5.50;;;;;25.63;59.72;101206.44;6214807;22;45529;-83
2023/08/19 20:53:29;;;;;;;;;8.00;6.00;;;;;25.74;59.37;101224.38;6214390;22;46377;-80
2023/08/19 20:55:54;;;;;;;;;4.25;4.25;;;;;25.77;59.66;101224.88;6213104;22;45403;-78
2023/08/19 20:58:19;;;;;;;;;7.00;5.75;;;;;25.57;59.83;101190.78;6213095;22;45330;-77
2023/08/19 21:00:45;;;;;;;;;4.00;4.00;;;;;25.66;59.59;101200.69;6213468;22;45318;-80
2023/08/19 21:03:11;;;;;;;;;4.50;4.50;;;;;25.87;59.64;101236.47;6211298;22;45461;-80
2023/08/19 21:05:40;;;;;;;;;5.60;4.20;;;;;25.75;60.04;101210.56;6211241;22;45274;-79
2023/08/19 21:08:06;;;;;;;;;5.60;5.60;;;;;25.93;59.90;101240.41;6212838;22;45217;-80
2023/08/19 21:10:31;;;;;;;;;4.50;4.50;;;;;25.95;59.47;101237.50;6213610;22;45461;-80
2023/08/19 21:12:57;;;;;;;;;6.00;4.25;;;;;25.94;60.00;101235.78;6213003;22;46491;-81
2023/08/19 21:15:23;;;;;;;;;5.00;5.00;;;;;25.80;59.94;101219.09;6212192;22;45259;-79
2023/08/19 21:17:49;;;;;;;;;4.80;4.20;;;;;25.77;59.90;101202.22;6212673;22;45322;-82
2023/08/19 21:20:14;;;;;;;;;5.25;4.00;;;;;25.85;60.06;101222.16;6214529;22;45303;-78
2023/08/19 21:22:40;;;;;;;;;5.00;5.00;;;;;25.96;59.85;101244.66;6216111;22;47689;-80
2023/08/19 21:25:06;;;;;;;;;5.00;5.00;;;;;25.91;59.78;101247.00;6213233;22;45362;-81
2023/08/19 21:27:31;;;;;;;;;2.00;0.00;;;;;26.01;59.43;101264.06;6212917;22;45211;-79
2023/08/19 21:29:56;;;;;;;;;3.50;3.50;;;;;25.94;59.42;101249.41;6213100;22;45614;-79
2023/08/19 21:32:22;;;;;;;;;4.50;4.50;;;;;26.01;59.67;101264.91;6211720;22;52249;-77
2023/08/19 21:34:47;;;;;;;;;5.00;5.00;;;;;25.79;59.90;101231.03;6213061;22;45227;-81
2023/08/19 21:37:12;;;;;;;;;5.00;3.75;;;;;25.88;59.55;101248.22;6212658;22;48879;-80
2023/08/19 21:39:38;;;;;;;;;6.75;4.00;;;;;25.83;59.42;101246.00;6211109;22;45326;-79
2023/08/19 21:42:03;;;;;;;;;4.00;4.00;;;;;25.86;59.87;101250.25;6212943;22;45308;-80
2023/08/19 21:44:29;;;;;;;;;5.75;5.75;;;;;25.72;60.19;101242.75;6210593;22;45382;-79
2023/08/19 21:46:56;;;;;;;;;6.00;6.00;;;;;25.74;58.76;101268.81;6212894;22;45249;-78
2023/08/19 21:49:23;;;;;;;;;6.00;5.50;;;;;25.56;58.34;101259.91;6213428;22;45263;-80
2023/08/19 21:51:48;;;;;;;;;6.25;6.25;;;;;25.46;58.64;101259.19;6212843;22;45514;-79
2023/08/19 21:54:14;;;;;;;;;4.25;4.25;;;;;25.40;57.54;101262.59;6213034;22;45488;-80
2023/08/19 21:56:40;;;;;;;;;6.40;4.40;;;;;25.09;57.70;101241.38;6212674;22;45378;-80
2023/08/19 21:59:05;;;;;;;;;2.50;2.50;;;;;25.14;57.02;101266.25;6212832;22;45263;-79
2023/08/19 22:01:30;;;;;;;;;3.00;3.00;;;;;24.98;56.47;101260.69;6212921;22;46325;-80
2023/08/19 22:03:56;;;;;;;;;3.75;3.75;;;;;25.04;56.53;101290.00;6210986;22;45246;-79
2023/08/19 22:06:21;;;;;;;;;3.25;3.25;;;;;24.94;56.67;101270.19;6213675;22;45685;-79
2023/08/19 22:08:46;;;;;;;;;3.25;3.25;;;;;24.77;56.42;101262.97;6213051;22;45347;-80
2023/08/19 22:11:12;;;;;;;;;6.75;2.00;;;;;24.67;56.99;101257.66;6212527;22;45500;-79
2023/08/19 22:13:37;;;;;;;;;2.50;2.50;;;;;24.66;56.67;101270.41;6212468;22;45330;-81
2023/08/19 22:16:03;;;;;;;;;2.50;2.50;;;;;24.51;56.57;101258.41;6212964;22;45318;-80
2023/08/19 22:18:28;;;;;;;;;4.50;2.75;;;;;24.43;56.24;101261.06;6212553;22;45540;-79
2023/08/19 22:20:53;;;;;;;;;3.00;3.00;;;;;24.41;56.42;101284.84;6212904;22;46270;-78
2023/08/19 22:23:19;;;;;;;;;4.50;2.75;;;;;24.26;56.58;101267.38;6210550;22;46632;-78
2023/08/19 22:25:44;;;;;;;;;1.50;1.50;;;;;24.28;56.75;101284.38;6210916;22;45337;-80
2023/08/19 22:28:10;;;;;;;;;2.00;2.00;;;;;24.12;57.17;101268.81;6212014;22;45339;-79
2023/08/19 22:30:37;;;;;;;;;3.00;3.00;;;;;24.06;57.20;101267.53;6210567;22;47913;-78
2023/08/19 22:33:02;;;;;;;;;4.75;3.00;;;;;24.12;57.14;101275.09;6212262;22;45212;-80
2023/08/19 22:35:27;;;;;;;;;3.00;3.00;;;;;24.08;57.32;101272.81;6212709;22;45164;-78
2023/08/19 22:37:53;;;;;;;;;6.25;2.75;;;;;24.08;56.62;101273.66;6211017;22;45167;-78
2023/08/19 22:40:18;;;;;;;;;2.00;2.00;;;;;24.07;56.79;101282.84;6212623;22;45232;-79
2023/08/19 22:42:43;;;;;;;;;2.75;2.75;;;;;23.86;56.78;101249.72;6212202;22;45196;-79
2023/08/19 22:45:09;;;;;;;;;4.00;4.00;;;;;23.95;57.09;101266.94;6212648;22;48682;-78
2023/08/19 22:47:35;;;;;;;;;2.75;1.25;;;;;23.73;56.72;101222.97;6212812;22;45378;-79
2023/08/19 22:50:01;;;;;;;;;2.25;2.25;;;;;24.06;56.90;101281.13;6210455;22;46154;-80
2023/08/19 22:52:27;;;;;;;;;2.25;2.00;;;;;24.05;56.66;101284.84;6212581;22;45311;-80
2023/08/19 22:54:53;;;;;;;;;3.00;3.00;;;;;23.75;56.82;101234.50;6212315;22;45407;-80
2023/08/19 22:57:18;;;;;;;;;3.50;1.00;;;;;23.89;57.06;101273.84;6212474;22;45424;-79
2023/08/19 22:59:43;;;;;;;;;2.25;2.25;;;;;23.78;56.28;101265.94;6212047;22;45430;-80
2023/08/19 23:02:09;;;;;;;;;2.00;2.00;;;;;23.74;56.62;101280.84;6212060;22;45370;-79
2023/08/19 23:04:35;;;;;;;;;1.00;1.00;;;;;23.75;56.85;101304.28;6212218;22;45339;-80
2023/08/19 23:07:00;;;;;;;;;4.00;1.00;;;;;23.66;57.18;101308.75;6210600;22;45264;-81
2023/08/19 23:09:26;;;;;;;;;3.00;3.00;;;;;23.45;57.41;101284.59;6212318;22;46368;-79
2023/08/19 23:11:51;;;;;;;;;1.25;1.00;;;;;23.47;57.67;101304.28;6211750;22;45224;-78
2023/08/19 23:14:16;;;;;;;;;0.50;0.50;;;;;23.38;57.04;101291.63;6211882;22;45137;-79
2023/08/19 23:16:42;;;;;;;;;6.00;1.25;;;;;23.32;57.13;101291.38;6212141;22;45449;-78
2023/08/19 23:19:07;;;;;;;;;2.00;2.00;;;;;23.32;57.57;101308.53;6211760;22;46307;-79
2023/08/19 23:21:32;;;;;;;;;2.25;1.75;;;;;23.32;57.44;101302.25;6212184;22;45246;-79
2023/08/19 23:23:58;;;;;;;;;2.00;1.00;;;;;23.16;57.18;101282.03;6212435;22;45261;-77
2023/08/19 23:26:23;;;;;;;;;5.00;2.00;;;;;23.26;57.12;101319.97;6211948;22;45228;-78
2023/08/19 23:28:48;;;;;;;;;4.00;2.00;;;;;23.21;57.13;101311.44;6211679;22;45502;-79
2023/08/19 23:31:14;;;;;;;;;5.25;1.75;;;;;23.19;56.90;101300.75;6212052;22;45310;-78
2023/08/19 23:33:39;;;;;;;;;1.25;1.25;;;;;23.08;56.83;101300.06;6212264;22;45709;-79
2023/08/19 23:36:05;;;;;;;;;2.00;1.25;;;;;23.02;56.96;101289.81;6212461;22;45489;-79
2023/08/19 23:38:31;;;;;;;;;2.00;2.00;;;;;23.06;57.24;101304.81;6211432;22;45437;-79
2023/08/19 23:40:56;;;;;;;;;1.75;1.75;;;;;23.01;57.24;101304.38;6213807;22;45271;-79
2023/08/19 23:43:21;;;;;;;;;0.75;0.75;;;;;22.72;57.09;101256.50;6213456;22;45301;-81
2023/08/19 23:45:47;;;;;;;;;3.00;1.00;;;;;22.97;57.23;101298.41;6213750;22;45255;-79
2023/08/19 23:48:13;;;;;;;;;1.00;1.00;;;;;22.88;56.91;101283.88;6213020;22;46603;-77
2023/08/19 23:50:40;;;;;;;;;2.25;0.75;;;;;22.88;56.99;101294.72;6213062;22;45330;-79
2023/08/19 23:53:08;;;;;;;;;2.25;2.25;;;;;22.95;57.06;101301.28;6211476;22;45245;-81
2023/08/19 23:55:34;;;;;;;;;2.00;2.00;;;;;22.89;57.62;101307.28;6213343;22;45397;-79
2023/08/19 23:58:00;;;;;;;;;1.50;1.50;;;;;22.92;57.38;101307.00;6211209;22;47179;-79
